Time;durP1;ratioP1;P1;durP2;ratioP2;P2;SDS_P1;SDS_P2;PMS_P1;PMS_P2;Temp;Humidity;BMP_temperature;BMP_pressure;BME280_temperature;BME280_humidity;BME280_pressure;Samples;Min_cycle;Max_cycle;Signal;HPM_P1;HPM_P2
2023/05/29 00:02:08;;;;;;;13.98;2.25;;;11.50;99.90;;;;;;5045558;28;20051;-92
2023/05/29 00:04:33;;;;;;;11.60;2.55;;;13.10;99.90;;;;;;5049332;28;20037;-92
2023/05/29 00:06:59;;;;;;;9.93;2.03;;;11.00;99.90;;;;;;5027128;28;20122;-91
2023/05/29 00:09:25;;;;;;;14.13;2.78;;;13.00;99.90;;;;;;5024956;28;20044;-92
2023/05/29 00:11:52;;;;;;;13.18;2.35;;;13.00;99.90;;;;;;5041189;28;20052;-91
2023/05/29 00:14:22;;;;;;;9.98;2.25;;;12.60;99.90;;;;;;5045912;28;20087;-92
2023/05/29 00:16:48;;;;;;;12.63;2.10;;;11.00;99.90;;;;;;5027083;28;20424;-89
2023/05/29 00:19:19;;;;;;;7.38;2.08;;;11.10;99.90;;;;;;5038839;28;20506;-86
2023/05/29 00:21:47;;;;;;;16.90;3.78;;;10.90;99.90;;;;;;5045661;28;20037;-91
2023/05/29 00:24:16;;;;;;;12.10;2.55;;;11.20;99.90;;;;;;5052583;28;20045;-87
2023/05/29 00:26:43;;;;;;;12.60;2.35;;;10.90;99.90;;;;;;5062096;28;20040;-87
2023/05/29 00:29:09;;;;;;;16.15;3.00;;;12.50;99.90;;;;;;5039522;28;20076;-88
2023/05/29 00:31:36;;;;;;;18.00;3.13;;;10.80;99.90;;;;;;5025843;28;20041;-93
2023/05/29 00:34:02;;;;;;;11.80;2.80;;;13.30;99.90;;;;;;5043090;28;20112;-91
2023/05/29 00:36:29;;;;;;;11.73;2.33;;;12.00;99.90;;;;;;5042643;28;20100;-93
2023/05/29 00:38:55;;;;;;;11.38;2.72;;;11.70;99.90;;;;;;5043027;28;20044;-87
2023/05/29 00:41:21;;;;;;;15.35;2.67;;;10.80;99.90;;;;;;5042551;28;20418;-87
2023/05/29 00:43:46;;;;;;;17.00;2.55;;;11.60;99.90;;;;;;5043712;28;20033;-88
2023/05/29 00:46:14;;;;;;;12.23;2.55;;;12.30;99.90;;;;;;5042888;28;20072;-90
2023/05/29 00:48:41;;;;;;;11.27;2.63;;;10.80;99.90;;;;;;5040126;28;20497;-88
2023/05/29 00:51:09;;;;;;;11.07;3.05;;;10.80;99.90;;;;;;5013218;28;20537;-91
2023/05/29 00:53:35;;;;;;;16.55;2.78;;;12.20;99.90;;;;;;5039667;28;20429;-91
2023/05/29 00:56:02;;;;;;;10.68;2.13;;;10.70;99.90;;;;;;5038497;28;20041;-90
2023/05/29 00:58:27;;;;;;;12.63;2.72;;;11.10;99.90;;;;;;5043039;28;20392;-90
2023/05/29 01:00:54;;;;;;;14.43;3.35;;;12.80;99.90;;;;;;5043356;28;20041;-84
2023/05/29 01:03:24;;;;;;;19.67;2.78;;;10.60;99.90;;;;;;5039001;28;20045;-89
2023/05/29 01:05:51;;;;;;;16.63;2.90;;;12.80;99.90;;;;;;5040198;28;20120;-90
2023/05/29 01:08:17;;;;;;;14.82;2.70;;;10.60;99.90;;;;;;5022595;28;20048;-90
2023/05/29 01:10:43;;;;;;;20.30;3.17;;;12.50;99.90;;;;;;5038316;28;20045;-85
2023/05/29 01:13:14;;;;;;;10.40;2.22;;;12.40;99.90;;;;;;5046970;28;20155;-88
2023/05/29 01:16:00;;;;;;;12.57;2.67;;;12.30;99.90;;;;;;5022607;28;20061;-90
2023/05/29 01:18:56;;;;;;;12.05;3.03;;;10.50;99.90;;;;;;5017738;28;20064;-85
2023/05/29 01:21:58;;;;;;;12.98;1.80;;;10.50;99.90;;;;;;5032469;28;20059;-90
2023/05/29 01:24:23;;;;;;;14.65;2.53;;;10.50;99.90;;;;;;5041527;28;20108;-89
2023/05/29 01:26:55;;;;;;;9.23;2.22;;;12.30;99.90;;;;;;5048773;28;20457;-92
2023/05/29 01:29:28;;;;;;;16.15;2.53;;;12.00;99.90;;;;;;5040963;28;20102;-89
2023/05/29 01:31:55;;;;;;;12.57;2.78;;;10.50;99.90;;;;;;5038252;28;20393;-90
2023/05/29 01:34:21;;;;;;;13.38;3.10;;;10.40;99.90;;;;;;5020735;28;20112;-90
2023/05/29 01:36:47;;;;;;;16.58;3.10;;;10.40;99.90;;;;;;5043163;28;20500;-91
2023/05/29 01:39:14;;;;;;;13.30;2.38;;;10.40;99.90;;;;;;5040635;28;20066;-90
2023/05/29 01:41:44;;;;;;;12.43;2.22;;;10.40;99.90;;;;;;5040442;28;20500;-89
2023/05/29 01:44:11;;;;;;;12.90;3.00;;;12.80;99.90;;;;;;5039561;28;20304;-88
2023/05/29 01:46:41;;;;;;;10.43;2.38;;;10.40;99.90;;;;;;5038067;28;20051;-90
2023/05/29 01:49:07;;;;;;;12.82;2.20;;;12.30;99.90;;;;;;5028377;28;20063;-87
2023/05/29 01:51:33;;;;;;;13.48;2.47;;;12.60;99.90;;;;;;5021353;28;20069;-88
2023/05/29 01:54:00;;;;;;;14.65;3.05;;;10.40;99.90;;;;;;5031901;28;20568;-83
2023/05/29 01:56:27;;;;;;;19.20;2.95;;;10.30;99.90;;;;;;5039412;28;20168;-93
2023/05/29 01:58:58;;;;;;;15.13;2.97;;;10.40;99.90;;;;;;5021380;28;20045;-93
2023/05/29 02:01:24;;;;;;;13.00;2.42;;;10.40;99.90;;;;;;5038283;28;20096;-92
2023/05/29 02:03:51;;;;;;;17.33;2.88;;;10.30;99.90;;;;;;5037098;28;20500;-91
2023/05/29 02:06:16;;;;;;;16.58;3.10;;;10.00;99.90;;;;;;5038764;28;20052;-90
2023/05/29 02:08:42;;;;;;;16.88;2.67;;;10.40;99.90;;;;;;5036117;28;20032;-91
2023/05/29 02:11:08;;;;;;;12.25;2.50;;;10.30;99.90;;;;;;5041901;28;20063;-88
2023/05/29 02:13:34;;;;;;;15.38;3.10;;;10.60;99.90;;;;;;5023534;28;20067;-92
2023/05/29 02:15:59;;;;;;;11.02;2.65;;;10.30;99.90;;;;;;5026554;28;20080;-86
2023/05/29 02:18:26;;;;;;;20.02;3.58;;;11.90;99.90;;;;;;5061880;28;20057;-86
2023/05/29 02:20:52;;;;;;;14.43;2.90;;;11.90;99.90;;;;;;5056749;28;20052;-88
2023/05/29 02:23:19;;;;;;;13.57;3.17;;;11.20;99.90;;;;;;5032984;28;20037;-90
2023/05/29 02:25:45;;;;;;;12.90;2.88;;;10.20;99.90;;;;;;5019659;28;20072;-89
2023/05/29 02:28:11;;;;;;;9.60;2.55;;;10.30;99.90;;;;;;5037037;28;20038;-87
2023/05/29 02:30:38;;;;;;;17.27;3.47;;;10.00;99.90;;;;;;5022311;28;20107;-92
2023/05/29 02:33:03;;;;;;;18.63;2.75;;;12.50;99.90;;;;;;5041102;28;20117;-88
2023/05/29 02:35:29;;;;;;;11.73;2.58;;;11.60;99.90;;;;;;5039202;28;20124;-86
2023/05/29 02:37:54;;;;;;;16.88;3.30;;;10.20;99.90;;;;;;5045866;28;20091;-84
2023/05/29 02:40:20;;;;;;;16.58;3.15;;;11.70;99.90;;;;;;5043109;28;20056;-84
2023/05/29 02:42:47;;;;;;;12.57;2.95;;;12.40;99.90;;;;;;5043549;28;20040;-86
2023/05/29 02:45:13;;;;;;;16.77;3.05;;;10.20;99.90;;;;;;5043094;28;20064;-86
2023/05/29 02:47:38;;;;;;;13.35;2.80;;;10.20;99.90;;;;;;5043308;28;20120;-86
2023/05/29 02:50:05;;;;;;;11.55;2.35;;;11.60;99.90;;;;;;5021463;28;20745;-85
2023/05/29 02:52:32;;;;;;;14.13;2.45;;;10.20;99.90;;;;;;5026131;28;20156;-85
2023/05/29 02:54:58;;;;;;;13.20;2.50;;;11.70;99.90;;;;;;5040870;28;20153;-83
2023/05/29 02:57:24;;;;;;;16.08;2.90;;;10.30;99.90;;;;;;5042096;28;20123;-87
2023/05/29 02:59:51;;;;;;;13.20;2.28;;;11.10;99.90;;;;;;5043438;28;20041;-86
2023/05/29 03:02:19;;;;;;;14.23;2.33;;;11.30;99.90;;;;;;5042159;28;20128;-85
2023/05/29 03:04:45;;;;;;;16.60;3.13;;;10.00;99.90;;;;;;5040255;28;20048;-84
2023/05/29 03:07:11;;;;;;;12.75;2.53;;;9.90;99.90;;;;;;5040718;28;20102;-85
2023/05/29 03:09:36;;;;;;;15.27;3.30;;;10.10;99.90;;;;;;5042714;28;20538;-85
2023/05/29 03:12:03;;;;;;;18.52;2.70;;;10.10;99.90;;;;;;5043054;28;20059;-86
2023/05/29 03:14:28;;;;;;;16.30;2.97;;;10.10;99.90;;;;;;5022627;28;20107;-84
2023/05/29 03:16:54;;;;;;;9.18;1.98;;;10.10;99.90;;;;;;5039282;28;20041;-84
2023/05/29 03:19:20;;;;;;;19.20;2.83;;;10.10;99.90;;;;;;5041170;28;20096;-85
2023/05/29 03:21:46;;;;;;;13.40;3.10;;;10.50;99.90;;;;;;5041861;28;20322;-83
2023/05/29 03:24:15;;;;;;;16.45;3.17;;;10.10;99.90;;;;;;5036642;28;20683;-84
2023/05/29 03:26:41;;;;;;;9.07;1.92;;;9.60;99.90;;;;;;5039588;28;20049;-84
2023/05/29 03:29:07;;;;;;;11.07;2.90;;;12.10;99.90;;;;;;5047133;28;20037;-85
2023/05/29 03:31:33;;;;;;;10.93;2.38;;;10.80;99.90;;;;;;5040658;28;20075;-85
2023/05/29 03:33:59;;;;;;;19.02;2.55;;;10.10;99.90;;;;;;5041547;28;20071;-86
2023/05/29 03:36:25;;;;;;;16.63;2.85;;;11.90;99.90;;;;;;5041266;28;20049;-86
2023/05/29 03:38:50;;;;;;;12.18;2.75;;;10.10;99.90;;;;;;5039062;28;20494;-85
2023/05/29 03:41:16;;;;;;;12.93;2.55;;;10.50;99.90;;;;;;5040131;28;20465;-85
2023/05/29 03:43:42;;;;;;;13.52;2.58;;;10.10;99.90;;;;;;5038884;28;20253;-85
2023/05/29 03:46:08;;;;;;;12.77;2.22;;;10.10;99.90;;;;;;5039648;28;20041;-85
2023/05/29 03:48:34;;;;;;;17.50;2.88;;;10.10;99.90;;;;;;5041992;28;20467;-86
2023/05/29 03:50:59;;;;;;;11.60;2.40;;;11.60;99.90;;;;;;5038606;28;20489;-85
2023/05/29 03:53:25;;;;;;;17.40;2.83;;;10.20;99.90;;;;;;5040549;28;20033;-85
2023/05/29 03:55:51;;;;;;;12.02;2.08;;;10.20;99.90;;;;;;5026100;28;20553;-86
2023/05/29 03:58:16;;;;;;;16.63;2.72;;;12.40;99.90;;;;;;5042489;28;20090;-84
2023/05/29 04:00:44;;;;;;;12.75;2.47;;;10.20;99.90;;;;;;5025808;28;20041;-87
2023/05/29 04:03:11;;;;;;;12.93;2.53;;;12.30;99.90;;;;;;5024687;28;20554;-87
2023/05/29 04:05:36;;;;;;;15.38;3.25;;;10.10;99.90;;;;;;5039709;28;20052;-86
2023/05/29 04:08:04;;;;;;;20.13;2.50;;;10.20;99.90;;;;;;5045676;28;20029;-86
2023/05/29 04:10:33;;;;;;;17.75;2.83;;;11.70;99.90;;;;;;5051014;28;20056;-84
2023/05/29 04:12:59;;;;;;;9.98;2.50;;;9.60;99.90;;;;;;5050847;28;20045;-86
2023/05/29 04:15:25;;;;;;;13.10;2.55;;;10.10;99.90;;;;;;5042907;28;20057;-85
2023/05/29 04:17:50;;;;;;;11.15;2.38;;;11.90;99.90;;;;;;5042835;28;20037;-86
2023/05/29 04:20:16;;;;;;;12.80;2.83;;;11.60;99.90;;;;;;5040925;28;20052;-86
2023/05/29 04:22:42;;;;;;;14.95;2.42;;;12.40;99.90;;;;;;5039176;28;20595;-85
2023/05/29 04:25:07;;;;;;;21.02;2.88;;;10.20;99.90;;;;;;5039174;28;20056;-85
2023/05/29 04:27:37;;;;;;;13.90;2.67;;;10.30;99.90;;;;;;5040354;28;20037;-83
2023/05/29 04:30:06;;;;;;;15.98;2.47;;;10.30;99.90;;;;;;5042662;28;20120;-87
2023/05/29 04:32:33;;;;;;;13.88;2.58;;;10.30;99.90;;;;;;5039478;28;20041;-85
2023/05/29 04:35:02;;;;;;;13.90;3.13;;;11.50;99.90;;;;;;5038703;28;20037;-86
2023/05/29 04:37:29;;;;;;;12.05;2.65;;;10.30;99.90;;;;;;5039891;28;20038;-86
2023/05/29 04:39:57;;;;;;;15.32;2.60;;;10.30;99.90;;;;;;5041026;28;20108;-85
2023/05/29 04:42:24;;;;;;;13.57;2.55;;;11.20;99.90;;;;;;5040135;28;20045;-86
2023/05/29 04:44:52;;;;;;;12.77;2.30;;;10.30;99.90;;;;;;5039032;28;20069;-86
2023/05/29 04:47:18;;;;;;;12.10;2.22;;;10.30;99.90;;;;;;5038373;28;20037;-85
2023/05/29 04:49:48;;;;;;;17.48;2.75;;;11.70;99.90;;;;;;5022919;28;20439;-87
2023/05/29 04:52:15;;;;;;;13.50;2.63;;;10.30;99.90;;;;;;5042367;28;20037;-87
2023/05/29 04:54:41;;;;;;;17.17;2.75;;;12.00;99.90;;;;;;5037708;28;20056;-86
2023/05/29 04:57:06;;;;;;;17.67;2.75;;;11.10;99.90;;;;;;5037919;28;20572;-85
2023/05/29 04:59:32;;;;;;;14.50;2.67;;;10.40;99.90;;;;;;5039579;28;20057;-88
2023/05/29 05:01:57;;;;;;;10.98;3.28;;;12.10;99.90;;;;;;5022872;28;20493;-85
2023/05/29 05:04:23;;;;;;;18.52;2.80;;;10.30;99.90;;;;;;5022814;28;20045;-85
2023/05/29 05:06:49;;;;;;;13.60;3.13;;;12.10;99.90;;;;;;5038081;28;20112;-85
2023/05/29 05:09:15;;;;;;;14.77;2.90;;;11.90;99.90;;;;;;5018731;28;20041;-86
2023/05/29 05:11:40;;;;;;;16.25;3.33;;;10.40;99.90;;;;;;5040480;28;20071;-87
2023/05/29 05:14:06;;;;;;;11.52;2.75;;;10.50;99.90;;;;;;5042110;28;20056;-85
2023/05/29 05:16:33;;;;;;;16.85;3.47;;;12.20;99.90;;;;;;5041718;28;20057;-85
2023/05/29 05:18:58;;;;;;;13.07;2.80;;;10.50;99.90;;;;;;5037349;28;20042;-84
2023/05/29 05:21:24;;;;;;;19.77;3.20;;;10.50;99.90;;;;;;5038141;28;20136;-82
2023/05/29 05:23:49;;;;;;;12.68;2.60;;;12.60;99.90;;;;;;5041045;28;20120;-84
2023/05/29 05:26:15;;;;;;;15.57;2.97;;;10.60;99.90;;;;;;5042389;28;20046;-83
2023/05/29 05:28:41;;;;;;;15.68;2.90;;;12.40;99.90;;;;;;5044341;28;20551;-85
2023/05/29 05:31:07;;;;;;;14.43;2.70;;;12.70;99.90;;;;;;5018764;28;20650;-85
2023/05/29 05:33:33;;;;;;;12.80;2.90;;;10.70;99.90;;;;;;5039376;28;20081;-85
2023/05/29 05:35:58;;;;;;;12.82;2.83;;;12.60;99.90;;;;;;5022935;28;20068;-84
2023/05/29 05:38:24;;;;;;;22.25;3.45;;;10.80;99.90;;;;;;5030212;28;20428;-84
2023/05/29 05:40:51;;;;;;;13.80;2.80;;;12.70;99.90;;;;;;5040737;28;20048;-84
2023/05/29 05:43:16;;;;;;;17.73;4.53;;;10.80;99.90;;;;;;5038006;28;20484;-85
2023/05/29 05:45:42;;;;;;;19.17;2.90;;;12.50;99.90;;;;;;5045164;28;20047;-85
2023/05/29 05:48:08;;;;;;;17.73;3.67;;;11.90;99.90;;;;;;5037822;28;20485;-85
2023/05/29 05:50:34;;;;;;;12.82;2.65;;;9.20;99.90;;;;;;5022015;28;20049;-84
2023/05/29 05:53:00;;;;;;;14.45;2.88;;;10.90;99.90;;;;;;5040478;28;20055;-85
2023/05/29 05:55:27;;;;;;;12.73;2.58;;;12.10;99.90;;;;;;5040012;28;20476;-85
2023/05/29 05:57:54;;;;;;;11.23;2.83;;;11.00;99.90;;;;;;5003493;28;20488;-84
2023/05/29 06:00:19;;;;;;;14.82;3.30;;;11.90;99.90;;;;;;5042776;28;20477;-83
2023/05/29 06:02:45;;;;;;;17.48;4.18;;;11.10;99.90;;;;;;5059831;28;20056;-86
2023/05/29 06:05:11;;;;;;;16.77;3.25;;;11.10;99.90;;;;;;5039550;28;20050;-85
2023/05/29 06:07:37;;;;;;;18.80;3.78;;;11.10;99.90;;;;;;5024307;28;20113;-85
2023/05/29 06:10:04;;;;;;;24.00;4.47;;;11.10;99.90;;;;;;5037093;28;20041;-85
2023/05/29 06:12:30;;;;;;;16.38;3.72;;;11.20;99.90;;;;;;5037554;28;20116;-83
2023/05/29 06:14:56;;;;;;;14.18;3.42;;;11.20;99.90;;;;;;5040285;28;20542;-85
2023/05/29 06:17:22;;;;;;;20.17;4.68;;;11.20;99.90;;;;;;5041244;28;20532;-85
2023/05/29 06:19:48;;;;;;;26.27;4.68;;;11.30;99.90;;;;;;5036471;28;20083;-86
2023/05/29 06:22:16;;;;;;;24.17;7.85;;;11.30;99.90;;;;;;5038739;28;20447;-86
2023/05/29 06:24:42;;;;;;;19.83;4.15;;;13.30;99.90;;;;;;5022242;28;20414;-86
2023/05/29 06:27:10;;;;;;;13.40;3.13;;;13.20;99.90;;;;;;5038575;28;20049;-86
2023/05/29 06:29:37;;;;;;;14.50;3.53;;;11.30;99.90;;;;;;5004766;28;20106;-84
2023/05/29 06:32:02;;;;;;;16.30;4.45;;;13.20;99.90;;;;;;5041005;28;20120;-84
2023/05/29 06:34:28;;;;;;;17.98;3.55;;;11.30;99.90;;;;;;5036569;28;20029;-85
2023/05/29 06:36:53;;;;;;;23.55;4.15;;;11.30;99.90;;;;;;5042670;28;20037;-87
2023/05/29 06:39:20;;;;;;;16.45;3.53;;;11.40;99.90;;;;;;5036895;28;20385;-86
2023/05/29 06:41:47;;;;;;;18.75;3.25;;;11.40;99.90;;;;;;4766763;28;10000682;-84
2023/05/29 06:44:13;;;;;;;21.40;4.85;;;11.40;99.90;;;;;;5036405;28;20963;-84
2023/05/29 06:46:49;;;;;;;26.38;10.40;;;11.40;99.90;;;;;;5038988;28;20084;-85
2023/05/29 06:49:14;;;;;;;19.40;5.47;;;11.50;99.90;;;;;;5038397;28;20408;-84
2023/05/29 06:51:40;;;;;;;19.50;4.03;;;12.50;99.90;;;;;;5037502;28;20357;-85
2023/05/29 06:54:06;;;;;;;20.92;4.30;;;12.90;99.90;;;;;;5018336;28;20493;-83
2023/05/29 06:56:31;;;;;;;15.25;3.17;;;13.90;99.90;;;;;;5035307;28;20127;-85
2023/05/29 06:58:57;;;;;;;16.33;3.10;;;11.70;99.90;;;;;;5039266;28;20045;-85
2023/05/29 07:01:23;;;;;;;20.90;3.85;;;11.70;99.90;;;;;;5035249;28;20103;-84
2023/05/29 07:03:54;;;;;;;20.27;4.28;;;11.70;99.90;;;;;;5040278;28;20534;-83
2023/05/29 07:06:23;;;;;;;17.65;3.70;;;11.80;99.90;;;;;;5024063;28;20485;-85
2023/05/29 07:08:48;;;;;;;18.25;3.70;;;13.50;99.90;;;;;;5021627;28;20041;-85
2023/05/29 07:11:14;;;;;;;28.30;4.60;;;14.00;99.90;;;;;;5039643;28;20133;-86
2023/05/29 07:13:40;;;;;;;19.77;3.70;;;13.80;99.90;;;;;;5023353;28;20047;-88
2023/05/29 07:16:06;;;;;;;14.43;3.80;;;13.00;99.90;;;;;;5039861;28;20560;-86
2023/05/29 07:18:31;;;;;;;14.50;3.45;;;11.90;99.90;;;;;;5040004;28;20036;-87
2023/05/29 07:20:57;;;;;;;17.10;3.30;;;12.70;99.90;;;;;;5042156;28;20099;-87
2023/05/29 07:23:25;;;;;;;17.52;3.60;;;13.20;99.90;;;;;;5035873;28;20051;-83
2023/05/29 07:25:51;;;;;;;22.92;4.22;;;12.10;99.90;;;;;;5044062;28;20042;-82
2023/05/29 07:28:16;;;;;;;20.52;5.10;;;12.10;99.90;;;;;;5025550;28;20092;-82
2023/05/29 07:30:42;;;;;;;20.30;4.97;;;12.10;99.90;;;;;;5044455;28;20373;-83
2023/05/29 07:33:08;;;;;;;22.17;4.32;;;14.00;99.90;;;;;;5041936;28;20042;-87
2023/05/29 07:35:33;;;;;;;25.98;4.35;;;13.80;99.90;;;;;;5028881;28;20442;-90
2023/05/29 07:37:59;;;;;;;15.68;3.50;;;14.30;99.90;;;;;;5042496;28;20473;-91
2023/05/29 07:40:25;;;;;;;18.92;4.25;;;14.00;99.90;;;;;;5024451;28;20037;-88
2023/05/29 07:42:51;;;;;;;21.45;4.18;;;12.30;99.90;;;;;;5046068;28;20052;-91
2023/05/29 07:45:18;;;;;;;14.13;3.50;;;12.40;99.90;;;;;;5027395;28;20048;-91
2023/05/29 07:47:43;;;;;;;33.08;14.32;;;13.30;99.90;;;;;;5038648;28;20103;-90
2023/05/29 07:50:10;;;;;;;20.55;4.93;;;13.80;99.90;;;;;;5054244;28;20068;-92
2023/05/29 07:52:36;;;;;;;21.23;6.25;;;12.40;99.90;;;;;;5053592;28;20093;-94
2023/05/29 07:55:01;;;;;;;16.50;4.00;;;12.40;99.90;;;;;;5045212;28;20077;-90
2023/05/29 07:57:37;;;;;;;23.83;4.63;;;12.40;99.90;;;;;;5026964;28;20106;-92
2023/05/29 08:00:08;;;;;;;20.15;3.25;;;12.50;99.90;;;;;;5024316;28;20060;-90
2023/05/29 08:02:36;;;;;;;16.80;3.38;;;12.50;99.90;;;;;;5023852;28;20095;-88
2023/05/29 08:05:02;;;;;;;23.05;4.13;;;12.50;99.90;;;;;;5019993;28;20052;-89
2023/05/29 08:07:28;;;;;;;19.58;4.45;;;12.50;99.90;;;;;;5044721;28;20045;-90
2023/05/29 08:09:54;;;;;;;16.70;3.05;;;13.80;99.90;;;;;;5042326;28;20033;-92
2023/05/29 08:12:20;;;;;;;25.38;4.53;;;13.20;99.90;;;;;;5024198;28;20560;-90
2023/05/29 08:14:46;;;;;;;23.88;4.03;;;12.50;99.90;;;;;;5044109;28;20060;-92
2023/05/29 08:17:11;;;;;;;16.65;3.42;;;12.60;99.90;;;;;;5047814;28;20052;-90
2023/05/29 08:19:37;;;;;;;15.23;3.80;;;13.60;99.90;;;;;;5027914;28;20044;-91
2023/05/29 08:22:05;;;;;;;24.73;4.82;;;12.70;99.90;;;;;;5042467;28;20042;-89
2023/05/29 08:24:31;;;;;;;20.20;4.70;;;12.60;99.90;;;;;;5032355;28;20051;-89
2023/05/29 08:26:58;;;;;;;19.08;3.95;;;12.70;99.90;;;;;;5022835;28;20041;-93
2023/05/29 08:29:30;;;;;;;16.80;4.10;;;12.80;99.90;;;;;;5011542;28;20096;-96
2023/05/29 08:31:57;;;;;;;13.75;3.53;;;12.90;99.90;;;;;;5051017;28;20103;-93
2023/05/29 08:34:23;;;;;;;19.13;3.75;;;12.10;99.90;;;;;;5050626;28;20038;-94
2023/05/29 08:36:51;;;;;;;20.58;4.28;;;12.80;99.90;;;;;;5060741;28;20080;-95
2023/05/29 08:39:20;;;;;;;18.38;3.08;;;13.00;99.90;;;;;;5054868;28;20127;-92
2023/05/29 08:41:59;;;;;;;19.83;3.67;;;14.40;99.90;;;;;;5050642;28;20057;-93
2023/05/29 08:44:28;;;;;;;29.80;4.18;;;13.10;99.90;;;;;;5045133;28;20041;-94
2023/05/29 08:46:56;;;;;;;24.98;3.50;;;14.10;99.90;;;;;;5032664;28;20053;-91
2023/05/29 08:49:22;;;;;;;17.30;4.10;;;13.20;99.90;;;;;;5048372;28;20113;-95
2023/05/29 08:51:54;;;;;;;24.48;4.40;;;13.10;99.90;;;;;;5044088;28;20409;-93
2023/05/29 08:54:20;;;;;;;24.38;4.63;;;13.20;99.90;;;;;;5038718;28;20481;-92
2023/05/29 08:56:46;;;;;;;19.35;4.38;;;13.30;99.90;;;;;;5034044;28;20046;-95
2023/05/29 08:59:12;;;;;;;20.15;3.60;;;14.10;99.90;;;;;;5043729;28;20040;-93
2023/05/29 09:01:39;;;;;;;19.00;3.83;;;13.30;99.90;;;;;;5040600;28;20049;-96
2023/05/29 09:04:05;;;;;;;20.23;6.28;;;14.30;99.90;;;;;;5045389;28;20064;-96
2023/05/29 09:06:30;;;;;;;25.63;6.57;;;13.10;99.90;;;;;;5046270;28;20036;-96
2023/05/29 09:08:57;;;;;;;22.65;3.88;;;13.30;99.90;;;;;;5039436;28;20037;-93
2023/05/29 09:11:23;;;;;;;15.35;3.00;;;13.30;99.90;;;;;;5019519;28;20049;-92
2023/05/29 09:13:49;;;;;;;20.67;4.05;;;13.30;99.90;;;;;;5041631;28;20513;-95
2023/05/29 09:16:16;;;;;;;18.48;3.42;;;14.90;99.90;;;;;;5019765;28;20050;-93
2023/05/29 09:18:45;;;;;;;18.65;4.20;;;13.30;99.90;;;;;;5006954;28;20532;-94
2023/05/29 09:21:26;;;;;;;17.90;3.72;;;13.30;99.90;;;;;;5039456;28;20481;-94
2023/05/29 09:24:02;;;;;;;20.88;4.18;;;15.20;99.90;;;;;;5048793;28;20033;-94
2023/05/29 09:26:28;;;;;;;17.30;4.05;;;14.20;99.90;;;;;;5048315;28;20076;-96
2023/05/29 09:28:55;;;;;;;22.00;4.30;;;13.40;99.90;;;;;;5061277;28;20041;-94
2023/05/29 09:31:21;;;;;;;18.90;3.97;;;13.40;99.90;;;;;;5031216;28;20041;-93
2023/05/29 09:33:48;;;;;;;15.80;4.07;;;15.00;99.90;;;;;;5039254;28;20512;-94
2023/05/29 09:36:24;;;;;;;21.95;4.68;;;13.40;99.90;;;;;;5037809;28;20037;-94
2023/05/29 09:38:51;;;;;;;16.17;3.28;;;13.50;99.90;;;;;;5041918;28;20045;-94
2023/05/29 09:41:23;;;;;;;22.55;3.90;;;15.10;99.90;;;;;;5047803;28;20034;-93
2023/05/29 09:43:55;;;;;;;18.80;3.70;;;13.60;99.90;;;;;;5026187;28;20050;-91
2023/05/29 09:46:21;;;;;;;18.75;3.58;;;14.30;99.90;;;;;;5024051;28;20492;-93
2023/05/29 09:48:48;;;;;;;18.80;3.78;;;13.70;99.90;;;;;;5041357;28;20088;-95
2023/05/29 09:51:23;;;;;;;24.70;3.72;;;13.80;99.90;;;;;;5041823;28;20073;-95
2023/05/29 09:53:53;;;;;;;22.98;3.65;;;13.80;99.90;;;;;;5043183;28;20056;-91
2023/05/29 09:56:24;;;;;;;20.95;3.92;;;15.40;99.90;;;;;;5040215;28;20107;-96
2023/05/29 09:58:53;;;;;;;14.52;3.88;;;13.90;99.90;;;;;;5039797;28;20409;-95
2023/05/29 10:01:18;;;;;;;17.17;3.88;;;14.00;99.90;;;;;;5042945;28;20075;-93
2023/05/29 10:03:44;;;;;;;20.40;3.67;;;14.00;99.90;;;;;;5044109;28;20044;-93
2023/05/29 10:06:13;;;;;;;24.80;4.75;;;15.30;99.90;;;;;;5039216;28;20034;-94
2023/05/29 10:08:48;;;;;;;21.85;4.07;;;15.70;99.90;;;;;;5039100;28;20062;-90
2023/05/29 10:11:17;;;;;;;21.02;3.10;;;15.00;99.90;;;;;;5006231;28;20309;-93
2023/05/29 10:13:48;;;;;;;21.50;3.75;;;14.20;99.90;;;;;;5023653;28;20045;-87
2023/05/29 10:16:15;;;;;;;16.95;3.97;;;14.20;99.90;;;;;;5025402;28;20044;-94
2023/05/29 10:18:45;;;;;;;17.00;3.38;;;15.80;99.90;;;;;;5025026;28;20702;-93
2023/05/29 10:21:13;;;;;;;17.00;3.05;;;15.20;99.90;;;;;;5013712;28;20046;-95
2023/05/29 10:23:45;;;;;;;19.95;4.00;;;14.90;99.90;;;;;;5026005;28;20064;-89
2023/05/29 10:26:21;;;;;;;18.73;3.30;;;15.20;99.90;;;;;;5031618;28;20096;-91
2023/05/29 10:28:56;;;;;;;19.77;4.28;;;15.80;99.90;;;;;;5026394;28;20084;-92
2023/05/29 10:31:47;;;;;;;15.77;3.67;;;14.50;99.90;;;;;;5011455;28;20052;-92
2023/05/29 10:34:25;;;;;;;20.35;3.88;;;14.50;99.90;;;;;;4987108;28;20068;-95
2023/05/29 10:37:03;;;;;;;19.90;3.75;;;14.60;99.90;;;;;;5019919;28;20417;-92
2023/05/29 10:39:29;;;;;;;20.30;4.28;;;15.50;99.90;;;;;;5023284;28;20389;-92
2023/05/29 10:41:58;;;;;;;12.65;3.33;;;16.30;99.90;;;;;;5018711;28;20045;-88
2023/05/29 10:44:32;;;;;;;15.57;3.63;;;16.10;99.90;;;;;;5010905;28;20049;-92
2023/05/29 10:47:04;;;;;;;19.23;3.63;;;14.80;99.90;;;;;;5008555;28;20054;-94
2023/05/29 10:49:30;;;;;;;17.05;3.28;;;16.40;99.90;;;;;;5028322;28;20033;-93
2023/05/29 10:51:57;;;;;;;20.45;4.47;;;15.70;99.90;;;;;;5010374;28;20485;-92
2023/05/29 10:54:26;;;;;;;15.55;3.42;;;15.10;99.90;;;;;;5020660;28;20041;-95
2023/05/29 10:56:56;;;;;;;22.73;3.67;;;15.10;99.90;;;;;;5007010;28;20056;-87
2023/05/29 10:59:25;;;;;;;15.25;3.40;;;15.20;99.90;;;;;;5002552;28;20042;-92
2023/05/29 11:01:52;;;;;;;14.20;3.00;;;15.20;99.90;;;;;;5032286;28;20049;-94
2023/05/29 11:04:19;;;;;;;21.75;3.35;;;15.20;99.90;;;;;;5030642;28;20041;-95
2023/05/29 11:06:45;;;;;;;13.45;3.15;;;15.10;99.90;;;;;;5028541;28;20053;-93
2023/05/29 11:09:31;;;;;;;17.40;3.67;;;16.20;99.90;;;;;;5024502;28;20041;-90
2023/05/29 11:12:35;;;;;;;14.52;3.45;;;15.90;99.90;;;;;;5022903;28;20100;-92
2023/05/29 11:15:04;;;;;;;24.33;3.75;;;17.80;99.90;;;;;;5040067;28;20552;-93
2023/05/29 11:17:30;;;;;;;14.15;3.08;;;15.50;99.90;;;;;;5045319;28;20068;-93
2023/05/29 11:19:57;;;;;;;14.48;3.30;;;15.60;99.90;;;;;;5026450;28;20025;-92
2023/05/29 11:22:33;;;;;;;19.90;4.05;;;16.30;99.90;;;;;;5025531;28;20108;-88
2023/05/29 11:25:00;;;;;;;16.27;3.42;;;16.00;99.90;;;;;;5054295;28;20076;-89
2023/05/29 11:27:26;;;;;;;19.55;3.90;;;15.90;99.90;;;;;;5045098;28;20044;-93
2023/05/29 11:29:56;;;;;;;16.50;3.63;;;16.00;99.90;;;;;;5054278;28;20428;-94
2023/05/29 11:32:27;;;;;;;16.80;3.58;;;16.40;99.90;;;;;;5039457;28;20045;-94
2023/05/29 11:34:56;;;;;;;14.77;3.08;;;16.10;99.90;;;;;;5043395;28;20045;-90
2023/05/29 11:37:23;;;;;;;20.48;4.43;;;16.40;99.90;;;;;;5044973;28;20090;-90
2023/05/29 11:39:48;;;;;;;14.65;3.67;;;16.20;99.90;;;;;;5045323;28;20072;-94
2023/05/29 11:42:15;;;;;;;15.85;3.92;;;16.20;99.90;;;;;;5044174;28;20103;-92
2023/05/29 11:44:41;;;;;;;13.30;2.90;;;16.20;99.90;;;;;;5048001;28;20041;-89
2023/05/29 11:47:07;;;;;;;18.60;4.68;;;17.70;99.90;;;;;;5045593;28;20037;-94
2023/05/29 11:49:34;;;;;;;23.45;4.75;;;16.40;99.90;;;;;;5046093;28;20140;-86
2023/05/29 11:52:07;;;;;;;11.70;3.08;;;18.00;99.90;;;;;;5047092;28;20463;-90
2023/05/29 11:54:34;;;;;;;15.93;2.85;;;16.50;99.90;;;;;;5045949;28;20126;-93
2023/05/29 11:57:02;;;;;;;19.52;3.63;;;17.10;99.90;;;;;;5046404;28;20033;-93
2023/05/29 11:59:33;;;;;;;12.35;3.28;;;16.80;99.90;;;;;;5042932;28;20045;-91
2023/05/29 12:02:02;;;;;;;12.07;3.30;;;17.00;99.90;;;;;;5044680;28;20116;-86
2023/05/29 12:04:30;;;;;;;14.55;3.53;;;17.00;99.90;;;;;;5043737;28;20047;-92
2023/05/29 12:06:56;;;;;;;13.25;3.08;;;17.10;99.90;;;;;;5054503;28;20048;-90
2023/05/29 12:09:26;;;;;;;13.77;3.22;;;17.70;99.90;;;;;;5028917;28;20047;-88
2023/05/29 12:11:53;;;;;;;13.75;3.92;;;17.20;99.90;;;;;;5042210;28;20103;-87
2023/05/29 12:14:19;;;;;;;15.57;3.83;;;17.30;99.90;;;;;;5042801;28;20049;-92
2023/05/29 12:16:45;;;;;;;12.80;3.15;;;17.30;99.90;;;;;;5044081;28;20132;-91
2023/05/29 12:19:11;;;;;;;15.02;3.22;;;17.30;99.90;;;;;;5024477;28;20120;-91
2023/05/29 12:21:43;;;;;;;20.65;9.20;;;17.50;99.90;;;;;;5041209;28;20041;-89
2023/05/29 12:24:08;;;;;;;15.77;5.10;;;17.40;99.90;;;;;;5039860;28;20082;-90
2023/05/29 12:26:35;;;;;;;15.13;3.15;;;17.40;99.90;;;;;;5039622;28;20034;-93
2023/05/29 12:29:05;;;;;;;18.48;3.13;;;19.10;99.90;;;;;;5040678;28;20046;-90
2023/05/29 12:31:32;;;;;;;16.88;4.05;;;17.40;99.90;;;;;;5039068;28;20098;-89
2023/05/29 12:34:12;;;;;;;17.95;3.75;;;18.10;99.90;;;;;;5021000;28;20117;-92
2023/05/29 12:36:41;;;;;;;14.80;4.97;;;17.50;99.90;;;;;;5042813;28;20045;-79
2023/05/29 12:39:10;;;;;;;15.00;3.97;;;17.60;99.90;;;;;;5043601;28;20033;-81
2023/05/29 12:41:37;;;;;;;13.88;3.55;;;17.70;99.90;;;;;;5047832;28;20740;-86